This is the latest recevied weather packets stored in our database for station/object N0NB. If no packets are shown the sender has not sent any weather packets the latest 10 day(s).
| Time | Temp. | Humidity | Pressure | Rain* | Wind** | Luminosity | Snow |
|---|---|---|---|---|---|---|---|
| 1788021617 | 27.78° C | 61% | 1012.4 hPa | 0 mm | - | 376 W/m² | - |
| 1788021017 | 27.22° C | 61% | 1012.4 hPa | 0 mm | - | 361 W/m² | - |
| 1788020417 | 27.22° C | 60% | 1012.5 hPa | 0 mm | - | 270 W/m² | - |
| 1788019817 | 27.22° C | 61% | 1012.5 hPa | 0 mm | - | 307 W/m² | - |
| 1788019217 | 26.67° C | 61% | 1012.4 hPa | 0 mm | - | 306 W/m² | - |
| 1788018617 | 26.67° C | 59% | 1012.5 hPa | 0 mm | - | 274 W/m² | - |
| 1788018017 | 26.67° C | 58% | 1012.5 hPa | 0 mm | - | 256 W/m² | - |
| 1788017417 | 26.67° C | 59% | 1012.5 hPa | 0 mm | - | 239 W/m² | - |
| 1788016817 | 26.67° C | 57% | 1012.5 hPa | 0 mm | - | 230 W/m² | - |
| 1788016217 | 26.67° C | 58% | 1012.6 hPa | 0 mm | - | 265 W/m² | - |
| 1788015617 | 27.22° C | 56% | 1012.8 hPa | 0 mm | - | 332 W/m² | - |
| 1788015017 | 27.22° C | 57% | 1013 hPa | 0 mm | - | 603 W/m² | - |
| 1788014417 | 26.11° C | 60% | 1012.9 hPa | 0 mm | - | 440 W/m² | - |
| 1788013817 | 24.44° C | 65% | 1012.9 hPa | 0 mm | - | 386 W/m² | - |
| 1788013217 | 23.33° C | 67% | 1013 hPa | 0 mm | - | 299 W/m² | - |
| 1788012617 | 23.33° C | 66% | 1013.1 hPa | 0 mm | - | 105 W/m² | - |
| 1788012017 | 23.33° C | 66% | 1013.1 hPa | 0 mm | - | 118 W/m² | - |
| 1788011416 | 23.33° C | 65% | 1013.4 hPa | 0 mm | - | 123 W/m² | - |
| 1788010816 | 23.89° C | 65% | 1013.4 hPa | 0 mm | - | 176 W/m² | - |
| 1788010216 | 23.33° C | 67% | 1013.4 hPa | 0 mm | - | 169 W/m² | - |
| 1788009620 | 22.78° C | 67% | 1013.5 hPa | 0 mm | - | 202 W/m² | - |
| 1788009016 | 22.22° C | 68% | 1013.5 hPa | 0 mm | - | 106 W/m² | - |
| 1788008416 | 22.22° C | 69% | 1013.5 hPa | 0 mm | - | 73 W/m² | - |
| 1788007816 | 21.67° C | 69% | 1013.5 hPa | 0 mm | - | 44 W/m² | - |
| 1788007216 | 21.67° C | 69% | 1013.5 hPa | 0 mm | - | 32 W/m² | - |
* Rain latest hour (hover to see other rain measurements)
** Current wind speed in m/s (hover to see current wind gust speed)